createdAt,value
2018-09-17T00:00:10.804Z,100220.81
2018-09-17T00:00:41.958Z,100219.28
2018-09-17T00:01:13.102Z,100215.95
2018-09-17T00:01:44.219Z,100220.37
2018-09-17T00:02:15.344Z,100220.95
2018-09-17T00:02:46.459Z,100218.11
2018-09-17T00:03:17.572Z,100221.94
2018-09-17T00:03:48.724Z,100219.67
2018-09-17T00:04:19.834Z,100219.73
2018-09-17T00:04:50.979Z,100219.44
2018-09-17T00:05:22.126Z,100223.03
2018-09-17T00:05:53.244Z,100218.47
2018-09-17T00:06:24.358Z,100219.98
2018-09-17T00:06:55.800Z,100216.65
2018-09-17T00:07:26.903Z,100220.42
2018-09-17T00:07:58.120Z,100218.02
2018-09-17T00:08:29.240Z,100221.80
2018-09-17T00:09:00.378Z,100224.14
2018-09-17T00:09:31.503Z,100225.33
2018-09-17T00:10:02.643Z,100221.79
2018-09-17T00:10:33.790Z,100221.49
2018-09-17T00:11:04.924Z,100225.56
2018-09-17T00:11:36.053Z,100223.90
2018-09-17T00:12:07.215Z,100219.57
2018-09-17T00:12:38.334Z,100224.48
2018-09-17T00:13:09.484Z,100225.95
2018-09-17T00:13:40.599Z,100219.33
2018-09-17T00:14:11.718Z,100220.59
2018-09-17T00:14:42.852Z,100221.34
2018-09-17T00:15:13.972Z,100223.90
2018-09-17T00:15:45.137Z,100223.90
2018-09-17T00:16:16.294Z,100220.50
2018-09-17T00:16:47.407Z,100218.40
2018-09-17T00:17:18.519Z,100219.42
2018-09-17T00:17:49.642Z,100222.17
2018-09-17T00:18:20.774Z,100220.45
2018-09-17T00:18:51.895Z,100224.48
2018-09-17T00:19:23.048Z,100221.83
2018-09-17T00:19:54.168Z,100217.71
2018-09-17T00:20:25.327Z,100217.66
2018-09-17T00:20:56.451Z,100214.98
2018-09-17T00:21:27.598Z,100217.02
2018-09-17T00:21:58.731Z,100222.16
2018-09-17T00:22:29.877Z,100217.11
2018-09-17T00:23:00.988Z,100221.64
2018-09-17T00:23:32.094Z,100224.05
2018-09-17T00:24:03.221Z,100227.66
2018-09-17T00:24:34.383Z,100226.78
2018-09-17T00:25:05.495Z,100222.36
2018-09-17T00:25:36.635Z,100223.69
2018-09-17T00:26:07.746Z,100223.30
2018-09-17T00:26:38.874Z,100226.39
2018-09-17T00:27:09.995Z,100226.48
2018-09-17T00:27:41.126Z,100226.09
2018-09-17T00:28:12.255Z,100223.67
2018-09-17T00:28:43.367Z,100222.53
2018-09-17T00:29:14.505Z,100223.94
2018-09-17T00:29:45.664Z,100223.94
2018-09-17T00:30:16.816Z,100227.91
2018-09-17T00:30:47.949Z,100222.13
2018-09-17T00:31:19.126Z,100225.48
2018-09-17T00:31:50.263Z,100226.41
2018-09-17T00:32:21.425Z,100229.45
2018-09-17T00:32:52.544Z,100223.23
2018-09-17T00:33:23.659Z,100230.63
2018-09-17T00:33:54.784Z,100223.62
2018-09-17T00:34:25.936Z,100231.08
2018-09-17T00:34:57.055Z,100224.16
2018-09-17T00:35:28.179Z,100225.88
2018-09-17T00:35:59.297Z,100225.96
2018-09-17T00:36:30.438Z,100225.48
2018-09-17T00:37:01.573Z,100223.37
2018-09-17T00:37:32.758Z,100224.39
2018-09-17T00:38:03.899Z,100222.37
2018-09-17T00:38:35.026Z,100224.66
2018-09-17T00:39:06.162Z,100226.91
2018-09-17T00:39:37.306Z,100224.26
2018-09-17T00:40:08.419Z,100223.47
2018-09-17T00:40:39.535Z,100220.83
2018-09-17T00:41:10.664Z,100222.72
2018-09-17T00:41:41.813Z,100222.72
2018-09-17T00:42:12.936Z,100225.91
2018-09-17T00:42:44.098Z,100222.56
2018-09-17T00:43:15.232Z,100224.72
2018-09-17T00:43:46.354Z,100222.08
2018-09-17T00:44:17.475Z,100222.95
2018-09-17T00:44:48.626Z,100219.38
2018-09-17T00:45:19.743Z,100222.47
2018-09-17T00:45:50.850Z,100224.97
2018-09-17T00:46:21.981Z,100223.47
2018-09-17T00:46:53.113Z,100220.73
2018-09-17T00:47:24.262Z,100223.78
2018-09-17T00:47:55.443Z,100221.92
2018-09-17T00:48:26.575Z,100223.16
2018-09-17T00:48:57.691Z,100224.34
2018-09-17T00:49:28.835Z,100228.91
2018-09-17T00:49:59.963Z,100226.39
2018-09-17T00:50:31.080Z,100229.34
2018-09-17T00:51:02.248Z,100222.58
2018-09-17T00:51:33.361Z,100230.91
2018-09-17T00:52:04.472Z,100226.55
2018-09-17T00:52:35.650Z,100226.64
2018-09-17T00:53:06.772Z,100227.48
2018-09-17T00:53:37.894Z,100227.66
2018-09-17T00:54:09.013Z,100231.98
2018-09-17T00:54:40.126Z,100228.50
2018-09-17T00:55:11.302Z,100233.88
2018-09-17T00:55:42.444Z,100234.33
2018-09-17T00:56:13.587Z,100225.46
2018-09-17T00:56:44.716Z,100233.94
2018-09-17T00:57:15.865Z,100233.58
2018-09-17T00:57:47.052Z,100236.77
2018-09-17T00:58:18.207Z,100226.66
2018-09-17T00:58:49.355Z,100231.16
2018-09-17T00:59:20.484Z,100229.14
2018-09-17T00:59:51.622Z,100232.80
2018-09-17T01:00:22.740Z,100236.69
2018-09-17T01:00:53.871Z,100233.02
2018-09-17T01:01:25.017Z,100235.22
2018-09-17T01:01:56.126Z,100235.13
2018-09-17T01:02:27.268Z,100234.59
2018-09-17T01:02:58.383Z,100236.28
2018-09-17T01:03:29.525Z,100237.60
2018-09-17T01:04:00.706Z,100236.67
2018-09-17T01:04:31.848Z,100236.67
2018-09-17T01:05:03.011Z,100235.83
2018-09-17T01:05:34.148Z,100235.34
2018-09-17T01:06:05.268Z,100236.22
2018-09-17T01:06:36.410Z,100233.48
2018-09-17T01:07:07.532Z,100238.24
2018-09-17T01:07:38.676Z,100238.99
2018-09-17T01:08:09.812Z,100235.42
2018-09-17T01:08:40.941Z,100237.97
2018-09-17T01:09:12.089Z,100245.83
2018-09-17T01:09:43.204Z,100235.19
2018-09-17T01:10:14.311Z,100241.31
2018-09-17T01:10:45.431Z,100234.70
2018-09-17T01:11:16.555Z,100238.13
2018-09-17T01:11:47.681Z,100234.07
2018-09-17T01:12:18.837Z,100230.41
2018-09-17T01:12:49.988Z,100234.67
2018-09-17T01:13:21.102Z,100232.33
2018-09-17T01:13:52.248Z,100232.00
2018-09-17T01:14:23.391Z,100232.94
2018-09-17T01:14:54.509Z,100231.80
2018-09-17T01:15:25.615Z,100229.78
2018-09-17T01:15:56.732Z,100234.59
2018-09-17T01:16:27.841Z,100233.66
2018-09-17T01:16:58.950Z,100227.43
2018-09-17T01:17:30.075Z,100228.66
2018-09-17T01:18:01.234Z,100228.22
2018-09-17T01:18:32.387Z,100229.84
2018-09-17T01:19:03.519Z,100229.21
2018-09-17T01:19:34.652Z,100228.81
2018-09-17T01:20:05.769Z,100231.47
2018-09-17T01:20:36.883Z,100203.73
2018-09-17T01:21:08.010Z,100229.75
2018-09-17T01:21:39.153Z,100230.68
2018-09-17T01:22:10.279Z,100230.14
2018-09-17T01:22:41.406Z,100231.86
2018-09-17T01:23:12.526Z,100227.88
2018-09-17T01:23:43.678Z,100232.16
2018-09-17T01:24:14.879Z,100230.26
2018-09-17T01:24:46.030Z,100232.27
2018-09-17T01:25:17.158Z,100229.48
2018-09-17T01:25:48.321Z,100230.71
2018-09-17T01:26:19.438Z,100231.05
2018-09-17T01:26:50.569Z,100233.15
2018-09-17T01:27:21.725Z,100235.02
2018-09-17T01:27:52.865Z,100228.30
2018-09-17T01:28:23.998Z,100230.50
2018-09-17T01:28:55.111Z,100228.78
2018-09-17T01:29:26.303Z,100224.27
2018-09-17T01:29:57.405Z,100230.80
2018-09-17T01:30:28.585Z,100233.05
2018-09-17T01:30:59.683Z,100230.11
2018-09-17T01:31:30.794Z,100228.78
2018-09-17T01:32:01.910Z,100227.37
2018-09-17T01:32:33.037Z,100225.59
2018-09-17T01:33:04.177Z,100222.47
2018-09-17T01:33:35.289Z,100223.70
2018-09-17T01:34:06.447Z,100221.62
2018-09-17T01:34:37.625Z,100226.92
2018-09-17T01:35:08.750Z,100222.86
2018-09-17T01:35:39.864Z,100223.16
2018-09-17T01:36:11.017Z,100221.34
2018-09-17T01:36:42.127Z,100224.38
2018-09-17T01:37:13.250Z,100221.05
2018-09-17T01:37:44.385Z,100219.72
2018-09-17T01:38:15.527Z,100220.66
2018-09-17T01:38:46.648Z,100215.36
2018-09-17T01:39:17.838Z,100214.03
2018-09-17T01:39:48.958Z,100215.36
2018-09-17T01:40:20.075Z,100216.69
2018-09-17T01:40:51.201Z,100213.50
2018-09-17T01:41:22.313Z,100224.87
2018-09-17T01:41:53.422Z,100220.71
2018-09-17T01:42:24.552Z,100221.10
2018-09-17T01:42:55.673Z,100217.52
2018-09-17T01:43:26.859Z,100221.70
2018-09-17T01:43:57.996Z,100216.40
2018-09-17T01:44:29.116Z,100215.56
2018-09-17T01:45:00.236Z,100214.69
2018-09-17T01:45:31.358Z,100219.59
2018-09-17T01:46:02.549Z,100217.97
2018-09-17T01:46:33.637Z,100218.45
2018-09-17T01:47:04.793Z,100219.87
2018-09-17T01:47:35.910Z,100221.73
2018-09-17T01:48:07.057Z,100223.55
2018-09-17T01:48:38.169Z,100226.55
2018-09-17T01:49:09.285Z,100227.03
2018-09-17T01:49:40.396Z,100223.99
2018-09-17T01:50:11.563Z,100218.79
2018-09-17T01:50:42.708Z,100227.13
2018-09-17T01:51:13.832Z,100223.16
2018-09-17T01:51:44.956Z,100230.23
2018-09-17T01:52:16.109Z,100223.99
2018-09-17T01:52:47.249Z,100224.87
2018-09-17T01:53:18.385Z,100223.99
2018-09-17T01:53:49.497Z,100226.55
2018-09-17T01:54:20.601Z,100228.27
2018-09-17T01:54:51.738Z,100231.61
2018-09-17T01:55:22.896Z,100230.19
2018-09-17T01:55:54.038Z,100237.59
2018-09-17T01:56:25.151Z,100233.23
2018-09-17T01:56:56.268Z,100230.58
2018-09-17T01:57:27.430Z,100232.38
2018-09-17T01:57:58.543Z,100231.52
2018-09-17T01:58:29.703Z,100233.23
2018-09-17T01:59:00.836Z,100231.91
2018-09-17T01:59:31.967Z,100233.23
2018-09-17T02:00:03.100Z,100233.52
2018-09-17T02:00:34.264Z,100234.70
2018-09-17T02:01:05.405Z,100236.41
2018-09-17T02:01:36.526Z,100235.08
2018-09-17T02:02:07.648Z,100231.95
2018-09-17T02:02:38.782Z,100233.58
2018-09-17T02:03:09.890Z,100240.68
2018-09-17T02:03:41.031Z,100243.23
2018-09-17T02:04:12.143Z,100236.91
2018-09-17T02:04:43.277Z,100242.41
2018-09-17T02:05:14.399Z,100243.73
2018-09-17T02:05:45.553Z,100241.96
2018-09-17T02:06:16.689Z,100243.73
2018-09-17T02:06:47.820Z,100240.16
2018-09-17T02:07:18.922Z,100248.10
2018-09-17T02:07:50.043Z,100245.84
2018-09-17T02:08:21.177Z,100247.08
2018-09-17T02:08:52.378Z,100254.93
2018-09-17T02:09:23.471Z,100251.83
2018-09-17T02:09:54.600Z,100248.25
2018-09-17T02:10:25.742Z,100251.19
2018-09-17T02:10:56.855Z,100250.41
2018-09-17T02:11:28.024Z,100252.52
2018-09-17T02:11:59.193Z,100250.16
2018-09-17T02:12:30.350Z,100257.08
2018-09-17T02:13:01.528Z,100249.91
2018-09-17T02:13:32.657Z,100249.91
2018-09-17T02:14:03.798Z,100254.34
2018-09-17T02:14:34.921Z,100252.17
2018-09-17T02:15:06.036Z,100252.33
2018-09-17T02:15:37.174Z,100249.67
2018-09-17T02:16:08.308Z,100254.53
2018-09-17T02:16:39.424Z,100256.98
2018-09-17T02:17:10.580Z,100253.31
2018-09-17T02:17:41.726Z,100254.09
2018-09-17T02:18:12.849Z,100252.77
2018-09-17T02:18:43.969Z,100258.45
2018-09-17T02:19:15.106Z,100259.30
2018-09-17T02:19:46.246Z,100259.20
2018-09-17T02:20:17.379Z,100260.37
2018-09-17T02:20:49.099Z,100257.53
2018-09-17T02:21:20.221Z,100262.58
2018-09-17T02:21:51.906Z,100259.28
2018-09-17T02:22:23.078Z,100256.83
2018-09-17T02:22:54.204Z,100257.13
2018-09-17T02:23:25.320Z,100263.30
2018-09-17T02:23:56.476Z,100260.16
2018-09-17T02:24:27.626Z,100259.23
2018-09-17T02:24:58.740Z,100258.45
2018-09-17T02:25:29.864Z,100262.91
2018-09-17T02:26:00.984Z,100261.48
2018-09-17T02:26:32.133Z,100260.66
2018-09-17T02:27:03.285Z,100261.00
2018-09-17T02:27:34.392Z,100262.17
2018-09-17T02:28:05.530Z,100268.48
2018-09-17T02:28:36.648Z,100264.98
2018-09-17T02:29:07.762Z,100265.45
2018-09-17T02:29:38.959Z,100268.64
2018-09-17T02:30:10.156Z,100264.83
2018-09-17T02:30:41.313Z,100264.53
2018-09-17T02:31:12.439Z,100270.48
2018-09-17T02:31:43.554Z,100269.15
2018-09-17T02:32:14.694Z,100271.80
2018-09-17T02:32:45.811Z,100264.69
2018-09-17T02:33:16.989Z,100266.89
2018-09-17T02:33:48.120Z,100264.23
2018-09-17T02:34:19.236Z,100269.73
2018-09-17T02:34:50.353Z,100271.45
2018-09-17T02:35:21.486Z,100269.22
2018-09-17T02:35:52.598Z,100272.62
2018-09-17T02:36:23.747Z,100275.43
2018-09-17T02:36:54.855Z,100273.20
2018-09-17T02:37:25.984Z,100271.55
2018-09-17T02:37:57.125Z,100277.30
2018-09-17T02:38:28.251Z,100272.09
2018-09-17T02:38:59.376Z,100277.40
2018-09-17T02:39:30.487Z,100275.88
2018-09-17T02:40:01.627Z,100274.06
2018-09-17T02:40:32.765Z,100277.75
2018-09-17T02:41:03.919Z,100273.87
2018-09-17T02:41:35.033Z,100269.89
2018-09-17T02:42:06.149Z,100274.64
2018-09-17T02:42:37.263Z,100267.05
2018-09-17T02:43:08.371Z,100268.47
2018-09-17T02:43:39.480Z,100267.63
2018-09-17T02:44:10.592Z,100262.09
2018-09-17T02:44:41.726Z,100271.17
2018-09-17T02:45:12.843Z,100270.48
2018-09-17T02:45:43.958Z,100269.80
2018-09-17T02:46:15.106Z,100265.92
2018-09-17T02:46:46.215Z,100269.60
2018-09-17T02:47:17.333Z,100262.97
2018-09-17T02:47:48.445Z,100265.33
2018-09-17T02:48:19.585Z,100264.48
2018-09-17T02:48:50.699Z,100260.96
2018-09-17T02:49:21.896Z,100258.80
2018-09-17T02:49:53.018Z,100263.52
2018-09-17T02:50:24.184Z,100259.09
2018-09-17T02:50:55.331Z,100261.26
2018-09-17T02:51:26.489Z,100260.87
2018-09-17T02:51:57.604Z,100260.81
2018-09-17T02:52:28.724Z,100257.77
2018-09-17T02:52:59.836Z,100267.88
2018-09-17T02:53:31.019Z,100264.48
2018-09-17T02:54:02.114Z,100261.60
2018-09-17T02:54:33.224Z,100263.11
2018-09-17T02:55:04.334Z,100261.20
2018-09-17T02:55:35.517Z,100263.91
2018-09-17T02:56:06.625Z,100261.25
2018-09-17T02:56:38.592Z,100257.22
2018-09-17T02:57:09.724Z,100263.56
2018-09-17T02:57:40.852Z,100267.78
2018-09-17T02:58:12.005Z,100263.61
2018-09-17T02:58:43.132Z,100266.75
2018-09-17T02:59:14.241Z,100266.91
2018-09-17T02:59:45.356Z,100265.58
2018-09-17T03:00:16.480Z,100264.73
2018-09-17T03:00:47.596Z,100267.84
2018-09-17T03:01:18.730Z,100266.52
2018-09-17T03:01:49.853Z,100266.36
2018-09-17T03:02:21.035Z,100267.14
2018-09-17T03:02:52.169Z,100272.50
2018-09-17T03:03:23.290Z,100264.84
2018-09-17T03:03:54.399Z,100264.09
2018-09-17T03:04:25.542Z,100259.34
2018-09-17T03:04:56.685Z,100266.06
2018-09-17T03:05:27.799Z,100264.83
2018-09-17T03:05:58.920Z,100262.62
2018-09-17T03:06:30.056Z,100270.48
2018-09-17T03:07:01.177Z,100264.48
2018-09-17T03:07:32.345Z,100266.17
2018-09-17T03:08:03.445Z,100260.81
2018-09-17T03:08:34.565Z,100265.62
2018-09-17T03:09:05.676Z,100265.08
2018-09-17T03:09:36.851Z,100258.36
2018-09-17T03:10:07.994Z,100264.11
2018-09-17T03:10:39.133Z,100267.88
2018-09-17T03:11:10.260Z,100263.75
2018-09-17T03:11:41.381Z,100267.15
2018-09-17T03:12:12.529Z,100267.15
2018-09-17T03:12:43.659Z,100268.66
2018-09-17T03:13:14.804Z,100265.08
2018-09-17T03:13:45.950Z,100265.38
2018-09-17T03:14:17.067Z,100270.09
2018-09-17T03:14:48.203Z,100263.41
2018-09-17T03:15:19.315Z,100265.09
2018-09-17T03:15:50.453Z,100265.09
2018-09-17T03:16:21.582Z,100270.39
2018-09-17T03:16:52.710Z,100266.06
2018-09-17T03:17:23.875Z,100266.22
2018-09-17T03:17:55.048Z,100274.17
2018-09-17T03:18:26.194Z,100269.35
2018-09-17T03:18:57.332Z,100271.61
2018-09-17T03:19:28.478Z,100270.58
2018-09-17T03:19:59.586Z,100270.67
2018-09-17T03:20:30.718Z,100265.38
2018-09-17T03:21:01.831Z,100275.49
2018-09-17T03:21:32.953Z,100268.48
2018-09-17T03:22:04.074Z,100276.22
2018-09-17T03:22:35.214Z,100272.80
2018-09-17T03:23:06.375Z,100274.85
2018-09-17T03:23:37.516Z,100273.71
2018-09-17T03:24:08.663Z,100272.39
2018-09-17T03:24:39.871Z,100277.78
2018-09-17T03:25:10.967Z,100276.61
2018-09-17T03:25:42.097Z,100275.08
2018-09-17T03:26:13.294Z,100277.88
2018-09-17T03:26:44.425Z,100274.00
2018-09-17T03:27:15.549Z,100280.23
2018-09-17T03:27:46.671Z,100282.67
2018-09-17T03:28:17.803Z,100282.38
2018-09-17T03:28:48.920Z,100278.10
2018-09-17T03:29:20.048Z,100279.12
2018-09-17T03:29:51.211Z,100279.12
2018-09-17T03:30:22.326Z,100277.32
2018-09-17T03:30:53.451Z,100276.69
2018-09-17T03:31:24.590Z,100284.39
2018-09-17T03:31:55.762Z,100284.69
2018-09-17T03:32:26.909Z,100288.03
2018-09-17T03:32:58.043Z,100282.94
2018-09-17T03:33:29.197Z,100286.12
2018-09-17T03:34:00.311Z,100288.88
2018-09-17T03:34:31.419Z,100288.97
2018-09-17T03:35:02.529Z,100287.25
2018-09-17T03:35:33.639Z,100289.11
2018-09-17T03:36:04.777Z,100283.45
2018-09-17T03:36:35.908Z,100291.77
2018-09-17T03:37:07.064Z,100286.16
2018-09-17T03:37:38.183Z,100289.30
2018-09-17T03:38:09.286Z,100287.43
2018-09-17T03:38:40.439Z,100284.59
2018-09-17T03:39:11.604Z,100290.68
2018-09-17T03:39:42.879Z,100291.52
2018-09-17T03:40:13.984Z,100286.12
2018-09-17T03:40:45.088Z,100287.84
2018-09-17T03:41:16.210Z,100286.42
2018-09-17T03:41:47.336Z,100291.81
2018-09-17T03:42:18.523Z,100288.88
2018-09-17T03:42:49.676Z,100294.27
2018-09-17T03:43:20.788Z,100292.16
2018-09-17T03:43:51.927Z,100294.05
2018-09-17T03:44:23.079Z,100291.41
2018-09-17T03:44:54.212Z,100292.73
2018-09-17T03:45:25.334Z,100290.44
2018-09-17T03:45:56.448Z,100291.55
2018-09-17T03:46:27.652Z,100294.11
2018-09-17T03:46:58.787Z,100292.73
2018-09-17T03:47:29.933Z,100292.40
2018-09-17T03:48:01.072Z,100288.61
2018-09-17T03:48:32.214Z,100293.52
2018-09-17T03:49:03.342Z,100292.28
2018-09-17T03:49:34.517Z,100297.58
2018-09-17T03:50:05.645Z,100292.07
2018-09-17T03:50:36.775Z,100289.97
2018-09-17T03:51:07.913Z,100293.64
2018-09-17T03:51:39.034Z,100290.59
2018-09-17T03:52:10.158Z,100291.44
2018-09-17T03:52:41.283Z,100289.36
2018-09-17T03:53:12.408Z,100296.83
2018-09-17T03:53:43.523Z,100292.94
2018-09-17T03:54:14.681Z,100297.55
2018-09-17T03:54:45.934Z,100298.57
2018-09-17T03:55:17.071Z,100292.43
2018-09-17T03:55:48.204Z,100288.81
2018-09-17T03:56:19.329Z,100290.09
2018-09-17T03:56:50.530Z,100295.69
2018-09-17T03:57:21.694Z,100295.20
2018-09-17T03:57:52.807Z,100295.98
2018-09-17T03:58:23.936Z,100295.41
2018-09-17T03:58:55.057Z,100293.34
2018-09-17T03:59:26.185Z,100296.13
2018-09-17T03:59:57.320Z,100294.66
2018-09-17T04:00:28.472Z,100296.08
2018-09-17T04:00:59.631Z,100296.92
2018-09-17T04:01:30.748Z,100302.21
2018-09-17T04:02:01.879Z,100300.80
2018-09-17T04:02:33.024Z,100298.06
2018-09-17T04:03:04.149Z,100299.78
2018-09-17T04:03:35.326Z,100301.09
2018-09-17T04:04:06.453Z,100298.84
2018-09-17T04:04:37.579Z,100302.91
2018-09-17T04:05:08.721Z,100303.36
2018-09-17T04:05:39.897Z,100312.50
2018-09-17T04:06:11.016Z,100308.63
2018-09-17T04:06:42.148Z,100310.34
2018-09-17T04:07:13.276Z,100306.19
2018-09-17T04:07:44.413Z,100304.86
2018-09-17T04:08:15.579Z,100304.47
2018-09-17T04:08:46.718Z,100300.10
2018-09-17T04:09:17.844Z,100305.80
2018-09-17T04:09:49.028Z,100308.84
2018-09-17T04:10:20.152Z,100305.80
2018-09-17T04:10:51.275Z,100305.04
2018-09-17T04:11:22.419Z,100306.52
2018-09-17T04:11:53.569Z,100300.80
2018-09-17T04:12:24.724Z,100309.55
2018-09-17T04:12:55.875Z,100311.27
2018-09-17T04:13:27.018Z,100307.20
2018-09-17T04:13:58.134Z,100309.31
2018-09-17T04:14:29.266Z,100308.92
2018-09-17T04:15:00.458Z,100311.48
2018-09-17T04:15:31.597Z,100309.77
2018-09-17T04:16:02.739Z,100312.33
2018-09-17T04:16:33.858Z,100315.84
2018-09-17T04:17:05.006Z,100312.27
2018-09-17T04:17:36.136Z,100312.63
2018-09-17T04:18:07.534Z,100313.11
2018-09-17T04:18:38.652Z,100314.67
2018-09-17T04:19:09.802Z,100312.98
2018-09-17T04:19:40.910Z,100316.95
2018-09-17T04:20:12.054Z,100313.34
2018-09-17T04:20:43.211Z,100315.64
2018-09-17T04:21:14.338Z,100314.13
2018-09-17T04:21:45.447Z,100316.69
2018-09-17T04:22:16.566Z,100318.02
2018-09-17T04:22:47.697Z,100317.08
2018-09-17T04:23:18.831Z,100319.25
2018-09-17T04:23:49.950Z,100318.41
2018-09-17T04:24:21.092Z,100321.54
2018-09-17T04:24:52.219Z,100324.63
2018-09-17T04:25:24.221Z,100319.25
2018-09-17T04:25:55.377Z,100324.94
2018-09-17T04:26:26.487Z,100320.97
2018-09-17T04:26:57.639Z,100313.80
2018-09-17T04:27:28.764Z,100321.27
2018-09-17T04:27:59.873Z,100323.47
2018-09-17T04:28:30.992Z,100322.59
2018-09-17T04:29:02.116Z,100325.42
2018-09-17T04:29:33.231Z,100326.27
2018-09-17T04:30:04.365Z,100321.36
2018-09-17T04:30:35.528Z,100327.05
2018-09-17T04:31:06.702Z,100324.79
2018-09-17T04:31:37.904Z,100330.84
2018-09-17T04:32:09.005Z,100320.63
2018-09-17T04:32:40.143Z,100323.13
2018-09-17T04:33:11.323Z,100327.86
2018-09-17T04:33:42.439Z,100332.62
2018-09-17T04:34:13.571Z,100307.72
2018-09-17T04:34:44.732Z,100330.97
2018-09-17T04:35:15.873Z,100331.36
2018-09-17T04:35:47.031Z,100332.68
2018-09-17T04:36:18.140Z,100329.64
2018-09-17T04:36:49.297Z,100322.17
2018-09-17T04:37:20.429Z,100327.77
2018-09-17T04:37:51.545Z,100327.77
2018-09-17T04:38:22.692Z,100328.08
2018-09-17T04:38:53.870Z,100330.23
2018-09-17T04:39:25.053Z,100326.27
2018-09-17T04:39:56.247Z,100331.86
2018-09-17T04:40:27.317Z,100325.48
2018-09-17T04:40:58.435Z,100323.22
2018-09-17T04:41:29.539Z,100331.02
2018-09-17T04:42:00.676Z,100335.84
2018-09-17T04:42:31.796Z,100333.48
2018-09-17T04:43:02.954Z,100335.20
2018-09-17T04:43:34.088Z,100332.16
2018-09-17T04:44:05.270Z,100337.77
2018-09-17T04:44:36.391Z,100335.41
2018-09-17T04:45:07.498Z,100330.80
2018-09-17T04:45:38.634Z,100338.30
2018-09-17T04:46:09.743Z,100335.56
2018-09-17T04:46:40.896Z,100337.19
2018-09-17T04:47:12.062Z,100344.41
2018-09-17T04:47:43.189Z,100337.39
2018-09-17T04:48:14.319Z,100339.65
2018-09-17T04:48:45.446Z,100337.78
2018-09-17T04:49:16.568Z,100341.30
2018-09-17T04:49:47.694Z,100341.96
2018-09-17T04:50:18.835Z,100341.21
2018-09-17T04:50:49.971Z,100338.17
2018-09-17T04:51:21.092Z,100344.89
2018-09-17T04:51:52.223Z,100342.63
2018-09-17T04:52:23.402Z,100347.45
2018-09-17T04:52:54.529Z,100343.68
2018-09-17T04:53:25.662Z,100347.95
2018-09-17T04:53:56.795Z,100347.50
2018-09-17T04:54:27.903Z,100347.11
2018-09-17T04:54:59.046Z,100346.76
2018-09-17T04:55:30.170Z,100345.83
2018-09-17T04:56:01.303Z,100345.64
2018-09-17T04:56:32.423Z,100345.39
2018-09-17T04:57:03.541Z,100343.05
2018-09-17T04:57:34.688Z,100348.09
2018-09-17T04:58:05.804Z,100346.13
2018-09-17T04:58:36.969Z,100346.59
2018-09-17T04:59:08.102Z,100353.36
2018-09-17T04:59:39.219Z,100352.33
2018-09-17T05:00:10.351Z,100354.82
2018-09-17T05:00:41.457Z,100348.13
2018-09-17T05:01:12.567Z,100350.14
2018-09-17T05:01:43.684Z,100347.30
2018-09-17T05:02:14.805Z,100350.73
2018-09-17T05:02:45.960Z,100350.94
2018-09-17T05:03:17.099Z,100351.88
2018-09-17T05:03:48.246Z,100347.55
2018-09-17T05:04:19.357Z,100351.72
2018-09-17T05:04:50.462Z,100356.48
2018-09-17T05:05:21.584Z,100354.72
2018-09-17T05:05:52.687Z,100351.13
2018-09-17T05:06:23.804Z,100347.39
2018-09-17T05:06:54.943Z,100353.44
2018-09-17T05:07:26.168Z,100353.53
2018-09-17T05:07:57.239Z,100348.36
2018-09-17T05:08:28.375Z,100356.13
2018-09-17T05:08:59.529Z,100353.77
2018-09-17T05:09:30.659Z,100352.34
2018-09-17T05:10:01.770Z,100351.61
2018-09-17T05:10:32.883Z,100355.00
2018-09-17T05:11:04.094Z,100349.34
2018-09-17T05:11:35.204Z,100352.05
2018-09-17T05:12:06.340Z,100351.38
2018-09-17T05:12:37.446Z,100357.06
2018-09-17T05:13:08.634Z,100359.17
2018-09-17T05:13:39.730Z,100355.48
2018-09-17T05:14:10.844Z,100351.89
2018-09-17T05:14:41.984Z,100354.27
2018-09-17T05:15:13.109Z,100356.91
2018-09-17T05:15:44.224Z,100351.45
2018-09-17T05:16:15.380Z,100354.69
2018-09-17T05:16:46.537Z,100351.58
2018-09-17T05:17:17.698Z,100349.22
2018-09-17T05:17:48.845Z,100357.76
2018-09-17T05:18:19.960Z,100355.55
2018-09-17T05:18:51.089Z,100357.66
2018-09-17T05:19:22.207Z,100357.11
2018-09-17T05:19:53.326Z,100361.55
2018-09-17T05:20:24.462Z,100359.28
2018-09-17T05:20:55.581Z,100354.36
2018-09-17T05:21:26.729Z,100362.13
2018-09-17T05:21:57.906Z,100354.29
2018-09-17T05:22:29.044Z,100351.92
2018-09-17T05:23:00.164Z,100356.84
2018-09-17T05:23:31.284Z,100356.68
2018-09-17T05:24:02.432Z,100349.66
2018-09-17T05:24:33.554Z,100353.16
2018-09-17T05:25:04.661Z,100351.27
2018-09-17T05:25:35.780Z,100353.52
2018-09-17T05:26:06.900Z,100352.28
2018-09-17T05:26:38.088Z,100352.45
2018-09-17T05:27:09.232Z,100356.14
2018-09-17T05:27:40.348Z,100354.03
2018-09-17T05:28:11.465Z,100352.97
2018-09-17T05:28:42.585Z,100349.92
2018-09-17T05:29:13.719Z,100352.52
2018-09-17T05:29:44.829Z,100352.70
2018-09-17T05:30:15.941Z,100356.43
2018-09-17T05:30:47.055Z,100354.27
2018-09-17T05:31:18.206Z,100354.55
2018-09-17T05:31:49.348Z,100348.85
2018-09-17T05:32:20.487Z,100352.45
2018-09-17T05:32:51.633Z,100353.03
2018-09-17T05:33:22.750Z,100353.13
2018-09-17T05:33:53.864Z,100346.66
2018-09-17T05:34:24.999Z,100349.80
2018-09-17T05:34:56.167Z,100341.83
2018-09-17T05:35:27.292Z,100346.36
2018-09-17T05:35:58.440Z,100350.92
2018-09-17T05:36:29.555Z,100350.56
2018-09-17T05:37:00.687Z,100347.16
2018-09-17T05:37:31.818Z,100351.83
2018-09-17T05:38:02.978Z,100352.21
2018-09-17T05:38:34.198Z,100351.38
2018-09-17T05:39:05.321Z,100353.05
2018-09-17T05:39:36.427Z,100350.66
2018-09-17T05:40:07.584Z,100360.42
2018-09-17T05:40:38.725Z,100345.64
2018-09-17T05:41:09.843Z,100351.64
2018-09-17T05:41:40.947Z,100347.84
2018-09-17T05:42:12.051Z,100348.34
2018-09-17T05:42:43.165Z,100348.24
2018-09-17T05:43:14.280Z,100343.39
2018-09-17T05:43:45.413Z,100347.88
2018-09-17T05:44:16.571Z,100345.52
2018-09-17T05:44:47.657Z,100345.52
2018-09-17T05:45:18.874Z,100344.81
2018-09-17T05:45:49.983Z,100349.30
2018-09-17T05:46:21.114Z,100344.09
2018-09-17T05:46:52.233Z,100342.75
2018-09-17T05:47:23.397Z,100339.99
2018-09-17T05:47:54.542Z,100342.16
2018-09-17T05:48:25.656Z,100339.89
2018-09-17T05:48:56.775Z,100350.94
2018-09-17T05:49:27.884Z,100345.70
2018-09-17T05:49:59.000Z,100347.86
2018-09-17T05:50:30.174Z,100343.21
2018-09-17T05:51:01.293Z,100347.12
2018-09-17T05:51:32.419Z,100349.49
2018-09-17T05:52:03.553Z,100350.44
2018-09-17T05:52:34.672Z,100350.89
2018-09-17T05:53:05.808Z,100347.58
2018-09-17T05:53:37.869Z,100348.91
2018-09-17T05:54:08.990Z,100354.33
2018-09-17T05:54:40.125Z,100347.23
2018-09-17T05:55:11.235Z,100352.83